KHRO/HRO METAR and TAF weather

Enter ICAO airport designator
Station Type Date Time Source
KHRO METAR 2020/08/15 10:53 UTC NOAA

KHRO 151053Z AUTO 16003KT 6SM BR CLR 21/21 A2998 RMK AO2 SLP135 T02060206 $


Station Type Date Time Source
KHRO Decoded METAR 2020/08/15 10:53 UTC NOAA

HARRISON BOONE COUNTY AIRPORT , AR, United States (KHRO) 36-16N 093-09W 417M
Aug 15, 2020 - 06:53 AM EDT / 2020.08.15 1053 UTC
Wind: from the SSE (160 degrees) at 3 MPH (3 KT):0
Visibility: 6 mile(s):0
Sky conditions: clear
Weather: mist
Temperature: 69.1 F (20.6 C)
Dew Point: 69.1 F (20.6 C)
Relative Humidity: 100%
Pressure (altimeter): 29.98 in. Hg (1015 hPa)
ob: KHRO 151053Z AUTO 16003KT 6SM BR CLR 21/21 A2998 RMK AO2 SLP135 T02060206
cycle: 11

Station Type Date Time Source
KHRO TAF 2020/08/15 06:39 UTC NOAA

TAF KHRO 150536Z 1506/1606 00000KT P6SM SCT250
FM150900 VRB04KT 5SM BR FEW250
FM151900 34006KT P6SM FEW250

Example: see airport list